RYR5XY LFMU-EGGW
Flight info
| Callsign | RYR5XY |
|---|---|
| Flight time | 1h 49m |
| Altitude | 36000 |
| Route | FJR DCT NG DCT MOLEN DCT MTL DCT ETREK/N0437F380 DCT MADOT DCT MOPEM DCT CACHI DCT AVLON DCT OKRIX DCT BRY DCT CLM DCT KOPOR DCT PIREG DCT SOSUN DCT SUBIP UM733 UNDUG |
| Aircraft | B738/M-SDE3FGILRWY/SB1 |
Departure
| Time | 2026-04-25 19:02 |
|---|---|
| Airport | Béziers Vias airport (LFMU) |
Arrival
| Time | 2026-04-25 20:51 |
|---|---|
| Airport | London Luton Airport (EGGW) |
| Time | Latitude | Longitude | Altitude | Speed | Heading |
|---|---|---|---|---|---|
| 2026-04-25 18:11 | 43.32139 | 3.35344 | 55 ft | 0 kts | 184° |
| 2026-04-25 18:45 | 43.32148 | 3.35345 | 55 ft | 2 kts | 193° |
| 2026-04-25 18:45 | 43.32164 | 3.35352 | 51 ft | 2 kts | 217° |
| 2026-04-25 18:45 | 43.32174 | 3.35370 | 49 ft | 2 kts | 259° |
| 2026-04-25 18:45 | 43.32175 | 3.35389 | 50 ft | 1 kts | 272° |
| 2026-04-25 18:46 | 43.32175 | 3.35392 | 50 ft | 0 kts | 272° |
| 2026-04-25 18:56 | 43.32175 | 3.35373 | 49 ft | 4 kts | 273° |
| 2026-04-25 18:56 | 43.32196 | 3.35328 | 52 ft | 7 kts | 335° |
| 2026-04-25 18:56 | 43.32237 | 3.35327 | 55 ft | 7 kts | 3° |
| 2026-04-25 18:56 | 43.32285 | 3.35333 | 56 ft | 7 kts | 5° |
| 2026-04-25 18:57 | 43.32330 | 3.35349 | 52 ft | 7 kts | 38° |
| 2026-04-25 18:57 | 43.32339 | 3.35421 | 55 ft | 10 kts | 94° |
| 2026-04-25 18:57 | 43.32332 | 3.35537 | 54 ft | 14 kts | 94° |
| 2026-04-25 18:57 | 43.32327 | 3.35627 | 53 ft | 14 kts | 93° |
| 2026-04-25 18:58 | 43.32320 | 3.35797 | 53 ft | 13 kts | 93° |
| 2026-04-25 18:58 | 43.32308 | 3.36044 | 50 ft | 14 kts | 94° |
| 2026-04-25 18:58 | 43.32300 | 3.36202 | 50 ft | 19 kts | 94° |
| 2026-04-25 18:59 | 43.32278 | 3.36566 | 49 ft | 19 kts | 95° |
| 2026-04-25 18:59 | 43.32251 | 3.36736 | 50 ft | 4 kts | 45° |
| 2026-04-25 19:00 | 43.32272 | 3.36672 | 50 ft | 8 kts | 274° |
| 2026-04-25 19:00 | 43.32274 | 3.36623 | 49 ft | 0 kts | 274° |
| 2026-04-25 19:01 | 43.32274 | 3.36622 | 49 ft | 0 kts | 274° |
| 2026-04-25 19:01 | 43.32281 | 3.36474 | 50 ft | 48 kts | 273° |
| 2026-04-25 19:01 | 43.32325 | 3.35670 | 50 ft | 118 kts | 274° |
| 2026-04-25 19:01 | 43.32385 | 3.34286 | 199 ft | 163 kts | 272° |
| 2026-04-25 19:02 | 43.32880 | 3.31234 | 1979 ft | 156 kts | 296° |
| 2026-04-25 19:02 | 43.33314 | 3.29800 | 2627 ft | 176 kts | 295° |
| 2026-04-25 19:02 | 43.33897 | 3.28152 | 2865 ft | 206 kts | 310° |
| 2026-04-25 19:03 | 43.36243 | 3.26920 | 3313 ft | 247 kts | 5° |
| 2026-04-25 19:03 | 43.38330 | 3.28365 | 4338 ft | 264 kts | 46° |
| 2026-04-25 19:03 | 43.39104 | 3.30630 | 5329 ft | 268 kts | 81° |
| 2026-04-25 19:04 | 43.39116 | 3.35840 | 7062 ft | 277 kts | 88° |
| 2026-04-25 19:04 | 43.39147 | 3.38500 | 7903 ft | 280 kts | 87° |
| 2026-04-25 19:05 | 43.39299 | 3.43878 | 9596 ft | 287 kts | 85° |
| 2026-04-25 19:05 | 43.40253 | 3.49284 | 10623 ft | 313 kts | 62° |
| 2026-04-25 19:05 | 43.41293 | 3.52080 | 10904 ft | 334 kts | 61° |
| 2026-04-25 19:06 | 43.42365 | 3.54915 | 11521 ft | 341 kts | 61° |
| 2026-04-25 19:06 | 43.44555 | 3.60790 | 13040 ft | 349 kts | 62° |
| 2026-04-25 19:06 | 43.45655 | 3.63790 | 13776 ft | 354 kts | 62° |
| 2026-04-25 19:07 | 43.47887 | 3.69929 | 15054 ft | 363 kts | 62° |
| 2026-04-25 19:07 | 43.49020 | 3.73062 | 15692 ft | 368 kts | 62° |
| 2026-04-25 19:08 | 43.51328 | 3.79464 | 16951 ft | 378 kts | 63° |
| 2026-04-25 19:08 | 43.52501 | 3.82723 | 17586 ft | 382 kts | 62° |
| 2026-04-25 19:09 | 43.56085 | 3.92706 | 19038 ft | 391 kts | 62° |
| 2026-04-25 19:09 | 43.56886 | 3.94941 | 19037 ft | 393 kts | 62° |
| 2026-04-25 19:09 | 43.60569 | 4.02063 | 19395 ft | 396 kts | 46° |
| 2026-04-25 19:10 | 43.62445 | 4.04841 | 20109 ft | 394 kts | 46° |
| 2026-04-25 19:10 | 43.64310 | 4.07611 | 20783 ft | 394 kts | 46° |
| 2026-04-25 19:10 | 43.66170 | 4.10407 | 21337 ft | 398 kts | 46° |
| 2026-04-25 19:10 | 43.68042 | 4.13253 | 21859 ft | 401 kts | 46° |
| 2026-04-25 19:11 | 43.69919 | 4.16133 | 22393 ft | 405 kts | 47° |
| 2026-04-25 19:11 | 43.71800 | 4.19035 | 22942 ft | 407 kts | 47° |
| 2026-04-25 19:11 | 43.73693 | 4.21962 | 23506 ft | 409 kts | 48° |
| 2026-04-25 19:11 | 43.75591 | 4.24900 | 23967 ft | 411 kts | 47° |
| 2026-04-25 19:12 | 43.77503 | 4.27863 | 24373 ft | 414 kts | 47° |
| 2026-04-25 19:12 | 43.79430 | 4.30851 | 24794 ft | 417 kts | 47° |
| 2026-04-25 19:12 | 43.81364 | 4.33854 | 25228 ft | 419 kts | 47° |
| 2026-04-25 19:12 | 43.83311 | 4.36870 | 25647 ft | 421 kts | 45° |
| 2026-04-25 19:13 | 43.85471 | 4.39609 | 26036 ft | 422 kts | 35° |
| 2026-04-25 19:13 | 43.87936 | 4.41805 | 26453 ft | 422 kts | 26° |
| 2026-04-25 19:13 | 43.90626 | 4.43422 | 26866 ft | 422 kts | 19° |
| 2026-04-25 19:13 | 43.93390 | 4.44802 | 27279 ft | 423 kts | 14° |
| 2026-04-25 19:14 | 43.96272 | 4.45569 | 27688 ft | 422 kts | 5° |
| 2026-04-25 19:14 | 43.98211 | 4.45857 | 27969 ft | 423 kts | 4° |
| 2026-04-25 19:14 | 44.02140 | 4.46378 | 28484 ft | 425 kts | 4° |
| 2026-04-25 19:14 | 44.05091 | 4.46763 | 28855 ft | 427 kts | 4° |
| 2026-04-25 19:15 | 44.08049 | 4.47163 | 29219 ft | 429 kts | 4° |
| 2026-04-25 19:15 | 44.11031 | 4.47581 | 29586 ft | 430 kts | 4° |
| 2026-04-25 19:15 | 44.13975 | 4.48006 | 29946 ft | 432 kts | 4° |
| 2026-04-25 19:15 | 44.17011 | 4.48452 | 30051 ft | 436 kts | 4° |
| 2026-04-25 19:16 | 44.19999 | 4.48896 | 30166 ft | 439 kts | 4° |
| 2026-04-25 19:16 | 44.23029 | 4.49349 | 30540 ft | 437 kts | 4° |
| 2026-04-25 19:16 | 44.26048 | 4.49802 | 30996 ft | 434 kts | 4° |
| 2026-04-25 19:16 | 44.29042 | 4.50252 | 31430 ft | 432 kts | 4° |
| 2026-04-25 19:17 | 44.32026 | 4.50700 | 31808 ft | 431 kts | 4° |
| 2026-04-25 19:17 | 44.35016 | 4.51148 | 32127 ft | 432 kts | 4° |
| 2026-04-25 19:17 | 44.37997 | 4.51596 | 32432 ft | 432 kts | 3° |
| 2026-04-25 19:17 | 44.40996 | 4.52046 | 32767 ft | 432 kts | 3° |
| 2026-04-25 19:18 | 44.43979 | 4.52494 | 33112 ft | 432 kts | 3° |
| 2026-04-25 19:18 | 44.46636 | 4.52895 | 33385 ft | 432 kts | 3° |
| 2026-04-25 19:18 | 44.49622 | 4.53344 | 33689 ft | 432 kts | 3° |
| 2026-04-25 19:18 | 44.52613 | 4.53795 | 34022 ft | 432 kts | 3° |
| 2026-04-25 19:19 | 44.55597 | 4.54246 | 34343 ft | 431 kts | 3° |
| 2026-04-25 19:19 | 44.58572 | 4.54696 | 34631 ft | 430 kts | 3° |
| 2026-04-25 19:19 | 44.61551 | 4.55147 | 34844 ft | 431 kts | 3° |
| 2026-04-25 19:19 | 44.63530 | 4.55446 | 34993 ft | 431 kts | 3° |
| 2026-04-25 19:20 | 44.67520 | 4.56050 | 35322 ft | 432 kts | 3° |
| 2026-04-25 19:20 | 44.70508 | 4.56504 | 35541 ft | 433 kts | 4° |
| 2026-04-25 19:20 | 44.73515 | 4.56960 | 35663 ft | 436 kts | 3° |
| 2026-04-25 19:20 | 44.76534 | 4.57419 | 35775 ft | 438 kts | 4° |
| 2026-04-25 19:21 | 44.79571 | 4.57881 | 35953 ft | 439 kts | 4° |
| 2026-04-25 19:21 | 44.85644 | 4.58808 | 36446 ft | 438 kts | 4° |
| 2026-04-25 19:21 | 44.88675 | 4.59271 | 36660 ft | 439 kts | 4° |
| 2026-04-25 19:22 | 44.91715 | 4.59736 | 36853 ft | 439 kts | 4° |
| 2026-04-25 19:22 | 44.94756 | 4.60201 | 37027 ft | 440 kts | 4° |
| 2026-04-25 19:22 | 45.00844 | 4.61135 | 37482 ft | 440 kts | 4° |
| 2026-04-25 19:23 | 45.03886 | 4.61602 | 37672 ft | 440 kts | 4° |
| 2026-04-25 19:23 | 45.09977 | 4.62539 | 38035 ft | 440 kts | 4° |
| 2026-04-25 19:23 | 45.12991 | 4.63003 | 38090 ft | 443 kts | 4° |
| 2026-04-25 19:24 | 45.19129 | 4.63742 | 38092 ft | 440 kts | 356° |
| 2026-04-25 19:25 | 45.31074 | 4.61150 | 38118 ft | 432 kts | 348° |
| 2026-04-25 19:25 | 45.36994 | 4.59738 | 38116 ft | 430 kts | 348° |
| 2026-04-25 19:26 | 45.42899 | 4.58370 | 38130 ft | 430 kts | 348° |
| 2026-04-25 19:26 | 45.48805 | 4.57010 | 38132 ft | 431 kts | 348° |
| 2026-04-25 19:27 | 45.53729 | 4.55873 | 38130 ft | 432 kts | 348° |
| 2026-04-25 19:27 | 45.60683 | 4.54263 | 38133 ft | 434 kts | 348° |
| 2026-04-25 19:28 | 45.66667 | 4.52874 | 38136 ft | 437 kts | 348° |
| 2026-04-25 19:28 | 45.72684 | 4.51474 | 38135 ft | 439 kts | 348° |
| 2026-04-25 19:29 | 45.78728 | 4.50068 | 38135 ft | 441 kts | 348° |
| 2026-04-25 19:29 | 45.84789 | 4.48656 | 38128 ft | 442 kts | 348° |
| 2026-04-25 19:30 | 45.90868 | 4.47237 | 38133 ft | 442 kts | 348° |
| 2026-04-25 19:30 | 45.96944 | 4.45815 | 38128 ft | 442 kts | 348° |
| 2026-04-25 19:31 | 46.03005 | 4.44394 | 38123 ft | 441 kts | 348° |
| 2026-04-25 19:31 | 46.09051 | 4.42972 | 38144 ft | 440 kts | 348° |
| 2026-04-25 19:32 | 46.15086 | 4.41550 | 38129 ft | 439 kts | 348° |
| 2026-04-25 19:32 | 46.19079 | 4.40607 | 38119 ft | 438 kts | 348° |
| 2026-04-25 19:33 | 46.27111 | 4.38707 | 38122 ft | 437 kts | 348° |
| 2026-04-25 19:33 | 46.33044 | 4.36943 | 38123 ft | 434 kts | 344° |
| 2026-04-25 19:34 | 46.38901 | 4.34826 | 38124 ft | 433 kts | 343° |
| 2026-04-25 19:34 | 46.44707 | 4.32723 | 38113 ft | 433 kts | 343° |
| 2026-04-25 19:35 | 46.50562 | 4.30644 | 38123 ft | 433 kts | 343° |
| 2026-04-25 19:35 | 46.56427 | 4.28579 | 38121 ft | 434 kts | 343° |
| 2026-04-25 19:36 | 46.62308 | 4.26507 | 38128 ft | 435 kts | 343° |
| 2026-04-25 19:36 | 46.68197 | 4.24426 | 38131 ft | 436 kts | 343° |
| 2026-04-25 19:37 | 46.74095 | 4.22337 | 38140 ft | 437 kts | 343° |
| 2026-04-25 19:37 | 46.80009 | 4.20237 | 38133 ft | 438 kts | 343° |
| 2026-04-25 19:38 | 46.85930 | 4.18130 | 38140 ft | 438 kts | 343° |
| 2026-04-25 19:38 | 46.91856 | 4.16017 | 38141 ft | 439 kts | 343° |
| 2026-04-25 19:39 | 46.97786 | 4.13896 | 38141 ft | 439 kts | 343° |
| 2026-04-25 19:39 | 47.03727 | 4.11768 | 38132 ft | 439 kts | 343° |
| 2026-04-25 19:40 | 47.09570 | 4.09235 | 38145 ft | 436 kts | 336° |
| 2026-04-25 19:40 | 47.15175 | 4.05850 | 38152 ft | 436 kts | 334° |
| 2026-04-25 19:41 | 47.20765 | 4.02413 | 38151 ft | 435 kts | 335° |
| 2026-04-25 19:41 | 47.24470 | 4.00178 | 38151 ft | 435 kts | 335° |
| 2026-04-25 19:42 | 47.31024 | 3.96267 | 38151 ft | 434 kts | 335° |
| 2026-04-25 19:42 | 47.37530 | 3.92386 | 38150 ft | 434 kts | 335° |
| 2026-04-25 19:43 | 47.42216 | 3.89583 | 38152 ft | 434 kts | 335° |
| 2026-04-25 19:43 | 47.47805 | 3.86231 | 38151 ft | 433 kts | 335° |
| 2026-04-25 19:44 | 47.53392 | 3.82873 | 38158 ft | 433 kts | 335° |
| 2026-04-25 19:44 | 47.58977 | 3.79515 | 38150 ft | 434 kts | 335° |
| 2026-04-25 19:45 | 47.64534 | 3.76184 | 38148 ft | 434 kts | 335° |
| 2026-04-25 19:45 | 47.70126 | 3.72826 | 38153 ft | 433 kts | 335° |
| 2026-04-25 19:46 | 47.75715 | 3.69458 | 38165 ft | 434 kts | 335° |
| 2026-04-25 19:46 | 47.81310 | 3.66079 | 38151 ft | 434 kts | 335° |
| 2026-04-25 19:47 | 47.86909 | 3.62688 | 38159 ft | 434 kts | 335° |
| 2026-04-25 19:47 | 47.92505 | 3.59292 | 38153 ft | 434 kts | 335° |
| 2026-04-25 19:48 | 47.98103 | 3.55885 | 38162 ft | 434 kts | 335° |
| 2026-04-25 19:48 | 48.03695 | 3.52452 | 38152 ft | 435 kts | 335° |
| 2026-04-25 19:49 | 48.08341 | 3.49587 | 38158 ft | 434 kts | 335° |
| 2026-04-25 19:49 | 48.14874 | 3.45553 | 38164 ft | 434 kts | 335° |
| 2026-04-25 19:50 | 48.23250 | 3.40367 | 38165 ft | 434 kts | 335° |
| 2026-04-25 19:51 | 48.28834 | 3.36899 | 38161 ft | 434 kts | 335° |
| 2026-04-25 19:51 | 48.34415 | 3.33424 | 38167 ft | 434 kts | 335° |
| 2026-04-25 19:52 | 48.39994 | 3.29944 | 38177 ft | 434 kts | 334° |
| 2026-04-25 19:52 | 48.45561 | 3.26427 | 38169 ft | 434 kts | 334° |
| 2026-04-25 19:53 | 48.51115 | 3.22877 | 38167 ft | 433 kts | 334° |
| 2026-04-25 19:53 | 48.56667 | 3.19323 | 38175 ft | 433 kts | 334° |
| 2026-04-25 19:54 | 48.62213 | 3.15768 | 38194 ft | 433 kts | 334° |
| 2026-04-25 19:54 | 48.67759 | 3.12206 | 38177 ft | 433 kts | 334° |
| 2026-04-25 19:55 | 48.73296 | 3.08641 | 38180 ft | 433 kts | 334° |
| 2026-04-25 19:55 | 48.78802 | 3.05088 | 38184 ft | 433 kts | 334° |
| 2026-04-25 19:56 | 48.84334 | 3.01501 | 38182 ft | 432 kts | 333° |
| 2026-04-25 19:56 | 48.89598 | 2.97194 | 38188 ft | 429 kts | 327° |
| 2026-04-25 19:57 | 48.94739 | 2.92560 | 38181 ft | 429 kts | 326° |
| 2026-04-25 19:57 | 48.99890 | 2.87949 | 38187 ft | 430 kts | 327° |
| 2026-04-25 19:58 | 49.05063 | 2.83373 | 38200 ft | 430 kts | 327° |
| 2026-04-25 19:58 | 49.10233 | 2.78812 | 38185 ft | 430 kts | 327° |
| 2026-04-25 19:59 | 49.15406 | 2.74242 | 38184 ft | 429 kts | 327° |
| 2026-04-25 19:59 | 49.20572 | 2.69664 | 38184 ft | 429 kts | 327° |
| 2026-04-25 20:00 | 49.25725 | 2.65085 | 38185 ft | 428 kts | 327° |
| 2026-04-25 20:00 | 49.30870 | 2.60502 | 38192 ft | 428 kts | 327° |
| 2026-04-25 20:01 | 49.38578 | 2.53615 | 38194 ft | 427 kts | 327° |
| 2026-04-25 20:01 | 49.43704 | 2.49021 | 38204 ft | 426 kts | 327° |
| 2026-04-25 20:02 | 49.48823 | 2.44423 | 38206 ft | 426 kts | 327° |
| 2026-04-25 20:02 | 49.53644 | 2.39227 | 38217 ft | 422 kts | 316° |
| 2026-04-25 20:03 | 49.57984 | 2.33156 | 38212 ft | 421 kts | 315° |
| 2026-04-25 20:03 | 49.62319 | 2.27069 | 38208 ft | 422 kts | 316° |
| 2026-04-25 20:04 | 49.66681 | 2.20998 | 38212 ft | 422 kts | 316° |
| 2026-04-25 20:04 | 49.71012 | 2.14983 | 38210 ft | 422 kts | 316° |
| 2026-04-25 20:05 | 49.75374 | 2.08911 | 38222 ft | 422 kts | 316° |
| 2026-04-25 20:05 | 49.79733 | 2.02825 | 38216 ft | 422 kts | 316° |
| 2026-04-25 20:06 | 49.84093 | 1.96726 | 38218 ft | 422 kts | 316° |
| 2026-04-25 20:06 | 49.88043 | 1.90055 | 38228 ft | 419 kts | 302° |
| 2026-04-25 20:07 | 49.90622 | 1.81995 | 38233 ft | 418 kts | 291° |
| 2026-04-25 20:07 | 49.92775 | 1.73603 | 38229 ft | 419 kts | 291° |
| 2026-04-25 20:08 | 49.94964 | 1.65225 | 38225 ft | 419 kts | 292° |
| 2026-04-25 20:08 | 49.97187 | 1.56846 | 38234 ft | 420 kts | 294° |
| 2026-04-25 20:09 | 50.00400 | 1.49285 | 38221 ft | 422 kts | 311° |
| 2026-04-25 20:09 | 50.04743 | 1.43126 | 38232 ft | 424 kts | 318° |
| 2026-04-25 20:10 | 50.09222 | 1.37151 | 38222 ft | 423 kts | 317° |
| 2026-04-25 20:10 | 50.11416 | 1.34200 | 38196 ft | 410 kts | 317° |
| 2026-04-25 20:10 | 50.13532 | 1.31336 | 38203 ft | 395 kts | 317° |
| 2026-04-25 20:11 | 50.15583 | 1.28544 | 37747 ft | 392 kts | 317° |
| 2026-04-25 20:11 | 50.17665 | 1.25695 | 36761 ft | 404 kts | 317° |
| 2026-04-25 20:11 | 50.19790 | 1.22778 | 36066 ft | 408 kts | 317° |
| 2026-04-25 20:11 | 50.21924 | 1.19848 | 35520 ft | 408 kts | 317° |
| 2026-04-25 20:12 | 50.24047 | 1.16931 | 35122 ft | 405 kts | 317° |
| 2026-04-25 20:12 | 50.26143 | 1.14048 | 34918 ft | 397 kts | 317° |
| 2026-04-25 20:12 | 50.28207 | 1.11206 | 34550 ft | 393 kts | 317° |
| 2026-04-25 20:12 | 50.28870 | 1.10293 | 34470 ft | 391 kts | 317° |
| 2026-04-25 20:13 | 50.32270 | 1.05601 | 33782 ft | 386 kts | 317° |
| 2026-04-25 20:13 | 50.34273 | 1.02832 | 33400 ft | 383 kts | 317° |
| 2026-04-25 20:13 | 50.36256 | 1.00087 | 33034 ft | 379 kts | 317° |
| 2026-04-25 20:13 | 50.38223 | 0.97361 | 32660 ft | 376 kts | 317° |
| 2026-04-25 20:14 | 50.40168 | 0.94664 | 32300 ft | 372 kts | 317° |
| 2026-04-25 20:14 | 50.42099 | 0.91983 | 31947 ft | 369 kts | 317° |
| 2026-04-25 20:14 | 50.44012 | 0.89324 | 31598 ft | 366 kts | 317° |
| 2026-04-25 20:14 | 50.45922 | 0.86707 | 31250 ft | 362 kts | 318° |
| 2026-04-25 20:15 | 50.47837 | 0.84161 | 30925 ft | 360 kts | 318° |
| 2026-04-25 20:15 | 50.49743 | 0.81642 | 30581 ft | 357 kts | 318° |
| 2026-04-25 20:15 | 50.51634 | 0.79131 | 30229 ft | 354 kts | 318° |
| 2026-04-25 20:15 | 50.53504 | 0.76638 | 29831 ft | 351 kts | 318° |
| 2026-04-25 20:16 | 50.55357 | 0.74162 | 29480 ft | 347 kts | 318° |
| 2026-04-25 20:16 | 50.57189 | 0.71723 | 29122 ft | 343 kts | 318° |
| 2026-04-25 20:16 | 50.59002 | 0.69310 | 28772 ft | 340 kts | 318° |
| 2026-04-25 20:16 | 50.60798 | 0.66916 | 28402 ft | 337 kts | 318° |
| 2026-04-25 20:17 | 50.62576 | 0.64545 | 28066 ft | 334 kts | 318° |
| 2026-04-25 20:17 | 50.64319 | 0.62216 | 27712 ft | 331 kts | 318° |
| 2026-04-25 20:17 | 50.66066 | 0.59880 | 27385 ft | 328 kts | 318° |
| 2026-04-25 20:17 | 50.67800 | 0.57557 | 27034 ft | 326 kts | 318° |
| 2026-04-25 20:18 | 50.69522 | 0.55250 | 26698 ft | 323 kts | 318° |
| 2026-04-25 20:18 | 50.71230 | 0.52958 | 26364 ft | 321 kts | 318° |
| 2026-04-25 20:18 | 50.72923 | 0.50683 | 26032 ft | 319 kts | 318° |
| 2026-04-25 20:18 | 50.74630 | 0.48389 | 25700 ft | 317 kts | 318° |
| 2026-04-25 20:19 | 50.76280 | 0.46169 | 25374 ft | 315 kts | 319° |
| 2026-04-25 20:19 | 50.77941 | 0.43932 | 25050 ft | 313 kts | 319° |
| 2026-04-25 20:19 | 50.79593 | 0.41704 | 24728 ft | 311 kts | 319° |
| 2026-04-25 20:19 | 50.81237 | 0.39483 | 24413 ft | 310 kts | 319° |
| 2026-04-25 20:20 | 50.82882 | 0.37258 | 24095 ft | 308 kts | 319° |
| 2026-04-25 20:20 | 50.84496 | 0.35071 | 23769 ft | 307 kts | 319° |
| 2026-04-25 20:20 | 50.86115 | 0.32876 | 23404 ft | 306 kts | 319° |
| 2026-04-25 20:20 | 50.87731 | 0.30684 | 23063 ft | 304 kts | 319° |
| 2026-04-25 20:21 | 50.89331 | 0.28511 | 22720 ft | 302 kts | 319° |
| 2026-04-25 20:21 | 50.90922 | 0.26347 | 22401 ft | 300 kts | 318° |
| 2026-04-25 20:21 | 50.92505 | 0.24193 | 22083 ft | 300 kts | 318° |
| 2026-04-25 20:21 | 50.94092 | 0.22032 | 21771 ft | 301 kts | 318° |
| 2026-04-25 20:22 | 50.95687 | 0.19856 | 21464 ft | 307 kts | 318° |
| 2026-04-25 20:22 | 50.96238 | 0.19104 | 21362 ft | 310 kts | 318° |
| 2026-04-25 20:22 | 50.98998 | 0.15336 | 20797 ft | 316 kts | 318° |
| 2026-04-25 20:22 | 51.00661 | 0.13064 | 20450 ft | 314 kts | 318° |
| 2026-04-25 20:23 | 51.02333 | 0.10846 | 20299 ft | 315 kts | 322° |
| 2026-04-25 20:23 | 51.04110 | 0.08802 | 20258 ft | 312 kts | 324° |
| 2026-04-25 20:23 | 51.05872 | 0.06885 | 20249 ft | 301 kts | 324° |
| 2026-04-25 20:23 | 51.07003 | 0.05665 | 20229 ft | 293 kts | 324° |
| 2026-04-25 20:24 | 51.09189 | 0.03300 | 20234 ft | 276 kts | 324° |
| 2026-04-25 20:24 | 51.10729 | 0.01620 | 20228 ft | 263 kts | 324° |
| 2026-04-25 20:24 | 51.12205 | 0.00001 | 20238 ft | 252 kts | 324° |
| 2026-04-25 20:24 | 51.13630 | -0.01569 | 20222 ft | 248 kts | 323° |
| 2026-04-25 20:25 | 51.15075 | -0.03168 | 20256 ft | 258 kts | 323° |
| 2026-04-25 20:25 | 51.16567 | -0.04822 | 20256 ft | 264 kts | 323° |
| 2026-04-25 20:25 | 51.18074 | -0.06494 | 20241 ft | 263 kts | 323° |
| 2026-04-25 20:25 | 51.19563 | -0.08149 | 20209 ft | 259 kts | 323° |
| 2026-04-25 20:26 | 51.21066 | -0.09821 | 19710 ft | 270 kts | 323° |
| 2026-04-25 20:26 | 51.22666 | -0.11606 | 18785 ft | 293 kts | 323° |
| 2026-04-25 20:26 | 51.24367 | -0.13503 | 18481 ft | 295 kts | 323° |
| 2026-04-25 20:26 | 51.26049 | -0.15379 | 18292 ft | 297 kts | 323° |
| 2026-04-25 20:27 | 51.27767 | -0.17298 | 18166 ft | 305 kts | 323° |
| 2026-04-25 20:27 | 51.29514 | -0.19252 | 18027 ft | 308 kts | 323° |
| 2026-04-25 20:27 | 51.31263 | -0.21209 | 17868 ft | 306 kts | 323° |
| 2026-04-25 20:27 | 51.33000 | -0.23154 | 17725 ft | 304 kts | 323° |
| 2026-04-25 20:28 | 51.34724 | -0.25087 | 17588 ft | 302 kts | 323° |
| 2026-04-25 20:28 | 51.35860 | -0.26361 | 17497 ft | 301 kts | 323° |
| 2026-04-25 20:28 | 51.37572 | -0.28284 | 17365 ft | 300 kts | 323° |
| 2026-04-25 20:28 | 51.39281 | -0.30205 | 17234 ft | 300 kts | 323° |
| 2026-04-25 20:29 | 51.40986 | -0.32119 | 17103 ft | 300 kts | 325° |
| 2026-04-25 20:29 | 51.42891 | -0.33464 | 16943 ft | 303 kts | 348° |
| 2026-04-25 20:29 | 51.45004 | -0.33464 | 16837 ft | 307 kts | 9° |
| 2026-04-25 20:29 | 51.47017 | -0.32295 | 16718 ft | 310 kts | 22° |
| 2026-04-25 20:30 | 51.48968 | -0.30808 | 16567 ft | 312 kts | 23° |
| 2026-04-25 20:30 | 51.50917 | -0.29278 | 16397 ft | 313 kts | 24° |
| 2026-04-25 20:30 | 51.52868 | -0.27747 | 16265 ft | 310 kts | 24° |
| 2026-04-25 20:30 | 51.54809 | -0.26234 | 16226 ft | 311 kts | 23° |
| 2026-04-25 20:31 | 51.56755 | -0.24728 | 16077 ft | 311 kts | 23° |
| 2026-04-25 20:31 | 51.58700 | -0.23227 | 15875 ft | 309 kts | 23° |
| 2026-04-25 20:31 | 51.60634 | -0.21737 | 15763 ft | 306 kts | 23° |
| 2026-04-25 20:31 | 51.62547 | -0.20265 | 15623 ft | 305 kts | 23° |
| 2026-04-25 20:32 | 51.64465 | -0.18790 | 15484 ft | 306 kts | 23° |
| 2026-04-25 20:32 | 51.66372 | -0.17321 | 15345 ft | 306 kts | 23° |
| 2026-04-25 20:32 | 51.68305 | -0.15830 | 15218 ft | 306 kts | 24° |
| 2026-04-25 20:32 | 51.70225 | -0.14348 | 15103 ft | 305 kts | 24° |
| 2026-04-25 20:33 | 51.72134 | -0.12873 | 14985 ft | 304 kts | 24° |
| 2026-04-25 20:33 | 51.74040 | -0.11399 | 14877 ft | 303 kts | 24° |
| 2026-04-25 20:33 | 51.75791 | -0.09510 | 14741 ft | 306 kts | 43° |
| 2026-04-25 20:33 | 51.76765 | -0.07878 | 14697 ft | 305 kts | 45° |
| 2026-04-25 20:34 | 51.78711 | -0.04532 | 14528 ft | 305 kts | 45° |
| 2026-04-25 20:34 | 51.80165 | -0.02041 | 14416 ft | 305 kts | 45° |
| 2026-04-25 20:34 | 51.81623 | 0.00444 | 14294 ft | 304 kts | 44° |
| 2026-04-25 20:34 | 51.83084 | 0.02920 | 14180 ft | 304 kts | 44° |
| 2026-04-25 20:35 | 51.84523 | 0.05353 | 14070 ft | 304 kts | 44° |
| 2026-04-25 20:35 | 51.85983 | 0.07820 | 13949 ft | 303 kts | 44° |
| 2026-04-25 20:35 | 51.87456 | 0.10305 | 13828 ft | 302 kts | 44° |
| 2026-04-25 20:35 | 51.88889 | 0.12726 | 13711 ft | 301 kts | 44° |
| 2026-04-25 20:36 | 51.90335 | 0.15170 | 13589 ft | 300 kts | 44° |
| 2026-04-25 20:36 | 51.91788 | 0.17597 | 13483 ft | 299 kts | 40° |
| 2026-04-25 20:36 | 51.93519 | 0.19370 | 13371 ft | 294 kts | 22° |
| 2026-04-25 20:36 | 51.95424 | 0.20527 | 13257 ft | 292 kts | 9° |
| 2026-04-25 20:37 | 51.97422 | 0.20483 | 13149 ft | 287 kts | 343° |
| 2026-04-25 20:37 | 51.99167 | 0.19031 | 13074 ft | 284 kts | 318° |
| 2026-04-25 20:37 | 52.00320 | 0.16462 | 13030 ft | 283 kts | 291° |
| 2026-04-25 20:37 | 52.00750 | 0.13338 | 13064 ft | 287 kts | 278° |
| 2026-04-25 20:38 | 52.00965 | 0.10093 | 13066 ft | 292 kts | 276° |
| 2026-04-25 20:38 | 52.01151 | 0.06823 | 13042 ft | 288 kts | 276° |
| 2026-04-25 20:38 | 52.01326 | 0.03624 | 12854 ft | 281 kts | 276° |
| 2026-04-25 20:38 | 52.01495 | 0.00480 | 12451 ft | 279 kts | 276° |
| 2026-04-25 20:39 | 52.01664 | -0.02668 | 11946 ft | 280 kts | 276° |
| 2026-04-25 20:39 | 52.01837 | -0.05822 | 11498 ft | 280 kts | 276° |
| 2026-04-25 20:39 | 52.02011 | -0.08965 | 11101 ft | 278 kts | 276° |
| 2026-04-25 20:39 | 52.02129 | -0.11072 | 10832 ft | 277 kts | 276° |
| 2026-04-25 20:40 | 52.02361 | -0.15194 | 10299 ft | 276 kts | 276° |
| 2026-04-25 20:40 | 52.02536 | -0.18289 | 9879 ft | 275 kts | 276° |
| 2026-04-25 20:40 | 52.02711 | -0.21372 | 9455 ft | 273 kts | 276° |
| 2026-04-25 20:40 | 52.02883 | -0.24418 | 9000 ft | 270 kts | 276° |
| 2026-04-25 20:41 | 52.02997 | -0.27457 | 8509 ft | 270 kts | 267° |
| 2026-04-25 20:41 | 52.02604 | -0.30431 | 8045 ft | 269 kts | 253° |
| 2026-04-25 20:41 | 52.02026 | -0.33312 | 7599 ft | 267 kts | 252° |
| 2026-04-25 20:41 | 52.01431 | -0.36164 | 7159 ft | 266 kts | 252° |
| 2026-04-25 20:42 | 52.00835 | -0.38998 | 6727 ft | 265 kts | 252° |
| 2026-04-25 20:42 | 52.00239 | -0.41812 | 6279 ft | 263 kts | 252° |
| 2026-04-25 20:42 | 51.99648 | -0.44615 | 5830 ft | 262 kts | 251° |
| 2026-04-25 20:42 | 51.99065 | -0.47405 | 5384 ft | 260 kts | 251° |
| 2026-04-25 20:43 | 51.98492 | -0.50174 | 5076 ft | 258 kts | 251° |
| 2026-04-25 20:43 | 51.97922 | -0.52954 | 5054 ft | 261 kts | 251° |
| 2026-04-25 20:43 | 51.97353 | -0.55740 | 5022 ft | 260 kts | 252° |
| 2026-04-25 20:43 | 51.96781 | -0.58542 | 5017 ft | 259 kts | 252° |
| 2026-04-25 20:44 | 51.96223 | -0.61280 | 5011 ft | 257 kts | 251° |
| 2026-04-25 20:44 | 51.95525 | -0.63914 | 5003 ft | 252 kts | 235° |
| 2026-04-25 20:44 | 51.94353 | -0.65948 | 4937 ft | 243 kts | 222° |
| 2026-04-25 20:44 | 51.93115 | -0.67738 | 4870 ft | 234 kts | 221° |
| 2026-04-25 20:45 | 51.91911 | -0.69451 | 4791 ft | 225 kts | 221° |
| 2026-04-25 20:45 | 51.90779 | -0.71133 | 4777 ft | 219 kts | 223° |
| 2026-04-25 20:45 | 51.89681 | -0.72834 | 4759 ft | 218 kts | 223° |
| 2026-04-25 20:45 | 51.88482 | -0.74294 | 4754 ft | 216 kts | 200° |
| 2026-04-25 20:46 | 51.87042 | -0.74501 | 4751 ft | 204 kts | 164° |
| 2026-04-25 20:46 | 51.85855 | -0.73449 | 4737 ft | 192 kts | 128° |
| 2026-04-25 20:46 | 51.85152 | -0.71644 | 4676 ft | 194 kts | 123° |
| 2026-04-25 20:46 | 51.84347 | -0.69787 | 4156 ft | 211 kts | 125° |
| 2026-04-25 20:47 | 51.83452 | -0.67745 | 3535 ft | 230 kts | 125° |
| 2026-04-25 20:47 | 51.82661 | -0.65533 | 3312 ft | 226 kts | 103° |
| 2026-04-25 20:47 | 51.82779 | -0.63096 | 3168 ft | 218 kts | 66° |
| 2026-04-25 20:47 | 51.83370 | -0.60903 | 3074 ft | 208 kts | 73° |
| 2026-04-25 20:48 | 51.83734 | -0.58721 | 3011 ft | 195 kts | 76° |
| 2026-04-25 20:48 | 51.84074 | -0.56634 | 2835 ft | 191 kts | 75° |
| 2026-04-25 20:48 | 51.84423 | -0.54568 | 2593 ft | 189 kts | 75° |
| 2026-04-25 20:48 | 51.84769 | -0.52542 | 2350 ft | 185 kts | 75° |
| 2026-04-25 20:49 | 51.85109 | -0.50552 | 2106 ft | 181 kts | 75° |
| 2026-04-25 20:49 | 51.85434 | -0.48652 | 1859 ft | 170 kts | 75° |
| 2026-04-25 20:49 | 51.85732 | -0.46911 | 1662 ft | 155 kts | 75° |
| 2026-04-25 20:49 | 51.86011 | -0.45287 | 1437 ft | 147 kts | 75° |
| 2026-04-25 20:50 | 51.86284 | -0.43692 | 1239 ft | 147 kts | 74° |
| 2026-04-25 20:50 | 51.86557 | -0.42108 | 1033 ft | 146 kts | 73° |
| 2026-04-25 20:50 | 51.86834 | -0.40534 | 836 ft | 145 kts | 73° |
| 2026-04-25 20:50 | 51.87102 | -0.38970 | 637 ft | 144 kts | 73° |
| 2026-04-25 20:51 | 51.87365 | -0.37449 | 535 ft | 129 kts | 75° |
| 2026-04-25 20:51 | 51.87545 | -0.36405 | 533 ft | 65 kts | 74° |
| 2026-04-25 20:51 | 51.87618 | -0.35960 | 529 ft | 12 kts | 69° |
| 2026-04-25 20:51 | 51.87680 | -0.35920 | 530 ft | 8 kts | 346° |
| 2026-04-25 20:52 | 51.87716 | -0.35935 | 530 ft | 3 kts | 344° |
| 2026-04-25 20:52 | 51.87728 | -0.35941 | 530 ft | 2 kts | 343° |
| 2026-04-25 20:52 | 51.87748 | -0.35954 | 530 ft | 4 kts | 328° |
| 2026-04-25 20:52 | 51.87783 | -0.36010 | 531 ft | 9 kts | 293° |
| 2026-04-25 20:53 | 51.87778 | -0.36113 | 531 ft | 9 kts | 259° |
| 2026-04-25 20:53 | 51.87762 | -0.36211 | 531 ft | 9 kts | 253° |
| 2026-04-25 20:53 | 51.87745 | -0.36306 | 531 ft | 9 kts | 253° |
| 2026-04-25 20:53 | 51.87729 | -0.36399 | 532 ft | 8 kts | 253° |
| 2026-04-25 20:54 | 51.87713 | -0.36488 | 532 ft | 8 kts | 254° |
| 2026-04-25 20:54 | 51.87697 | -0.36575 | 532 ft | 8 kts | 254° |
| 2026-04-25 20:54 | 51.87682 | -0.36659 | 532 ft | 8 kts | 254° |
| 2026-04-25 20:54 | 51.87665 | -0.36759 | 533 ft | 11 kts | 254° |
| 2026-04-25 20:55 | 51.87642 | -0.36892 | 533 ft | 13 kts | 255° |
| 2026-04-25 20:55 | 51.87619 | -0.37035 | 534 ft | 13 kts | 255° |
| 2026-04-25 20:55 | 51.87596 | -0.37173 | 534 ft | 13 kts | 255° |
| 2026-04-25 20:55 | 51.87577 | -0.37310 | 534 ft | 12 kts | 271° |
| 2026-04-25 20:56 | 51.87612 | -0.37432 | 535 ft | 12 kts | 312° |
| 2026-04-25 20:56 | 51.87679 | -0.37509 | 535 ft | 12 kts | 313° |
| 2026-04-25 20:56 | 51.87717 | -0.37622 | 535 ft | 11 kts | 296° |
| 2026-04-25 20:56 | 51.87751 | -0.37736 | 535 ft | 11 kts | 295° |
| 2026-04-25 20:57 | 51.87774 | -0.37810 | 535 ft | 1 kts | 314° |
| 2026-04-25 20:57 | 51.87780 | -0.37811 | 535 ft | 2 kts | 353° |
| 2026-04-25 20:57 | 51.87798 | -0.37801 | 535 ft | 3 kts | 24° |
| 2026-04-25 20:57 | 51.87813 | -0.37789 | 535 ft | 0 kts | 27° |
| 2026-04-25 20:58 | 51.87816 | -0.37786 | 535 ft | 0 kts | 27° |